sensor_id;sensor_type;location;lat;lon;timestamp;P1;durP1;ratioP1;P2;durP2;ratioP2
21949;SDS011;11139;51.284;7.226;2024-03-23T00:52:47;8.80;;;3.55;;
21949;SDS011;11139;51.284;7.226;2024-03-23T00:55:13;7.05;;;2.58;;
21949;SDS011;11139;51.284;7.226;2024-03-23T00:57:39;7.82;;;3.38;;
21949;SDS011;11139;51.284;7.226;2024-03-23T01:00:05;8.10;;;2.88;;
21949;SDS011;11139;51.284;7.226;2024-03-23T01:02:31;6.53;;;3.13;;
21949;SDS011;11139;51.284;7.226;2024-03-23T01:04:57;8.32;;;3.45;;
21949;SDS011;11139;51.284;7.226;2024-03-23T01:07:23;7.32;;;2.80;;
21949;SDS011;11139;51.284;7.226;2024-03-23T01:09:49;6.38;;;2.95;;
21949;SDS011;11139;51.284;7.226;2024-03-23T01:12:14;7.88;;;2.75;;
21949;SDS011;11139;51.284;7.226;2024-03-23T01:14:40;8.65;;;2.65;;
21949;SDS011;11139;51.284;7.226;2024-03-23T01:17:05;7.25;;;2.90;;
21949;SDS011;11139;51.284;7.226;2024-03-23T01:19:31;6.40;;;2.63;;
21949;SDS011;11139;51.284;7.226;2024-03-23T01:21:57;6.57;;;2.90;;
21949;SDS011;11139;51.284;7.226;2024-03-23T01:24:22;7.15;;;2.72;;
21949;SDS011;11139;51.284;7.226;2024-03-23T01:26:48;7.63;;;2.92;;
21949;SDS011;11139;51.284;7.226;2024-03-23T01:29:13;4.63;;;2.20;;
21949;SDS011;11139;51.284;7.226;2024-03-23T01:31:39;5.90;;;2.20;;
21949;SDS011;11139;51.284;7.226;2024-03-23T01:34:05;6.82;;;3.03;;
21949;SDS011;11139;51.284;7.226;2024-03-23T01:36:30;7.15;;;2.35;;
21949;SDS011;11139;51.284;7.226;2024-03-23T01:38:56;6.22;;;2.33;;
21949;SDS011;11139;51.284;7.226;2024-03-23T01:41:21;6.28;;;2.10;;
21949;SDS011;11139;51.284;7.226;2024-03-23T01:43:49;3.33;;;2.00;;
21949;SDS011;11139;51.284;7.226;2024-03-23T01:46:15;4.32;;;2.00;;
21949;SDS011;11139;51.284;7.226;2024-03-23T01:48:41;6.30;;;2.47;;
21949;SDS011;11139;51.284;7.226;2024-03-23T01:51:07;6.10;;;2.35;;
21949;SDS011;11139;51.284;7.226;2024-03-23T01:53:33;5.88;;;2.25;;
21949;SDS011;11139;51.284;7.226;2024-03-23T01:55:58;5.57;;;2.47;;
21949;SDS011;11139;51.284;7.226;2024-03-23T01:58:24;4.65;;;2.10;;
21949;SDS011;11139;51.284;7.226;2024-03-23T02:00:50;7.85;;;2.60;;
21949;SDS011;11139;51.284;7.226;2024-03-23T02:03:25;4.97;;;2.00;;
21949;SDS011;11139;51.284;7.226;2024-03-23T02:05:51;6.22;;;2.15;;
21949;SDS011;11139;51.284;7.226;2024-03-23T02:08:18;2.53;;;1.65;;
21949;SDS011;11139;51.284;7.226;2024-03-23T02:10:46;3.90;;;1.40;;
21949;SDS011;11139;51.284;7.226;2024-03-23T02:13:14;5.65;;;1.90;;
21949;SDS011;11139;51.284;7.226;2024-03-23T02:15:40;7.82;;;3.22;;
21949;SDS011;11139;51.284;7.226;2024-03-23T02:18:07;10.05;;;2.45;;
21949;SDS011;11139;51.284;7.226;2024-03-23T02:20:33;6.05;;;1.90;;
21949;SDS011;11139;51.284;7.226;2024-03-23T02:22:59;6.38;;;2.53;;
21949;SDS011;11139;51.284;7.226;2024-03-23T02:25:25;5.68;;;1.67;;
21949;SDS011;11139;51.284;7.226;2024-03-23T02:27:50;6.78;;;2.35;;
21949;SDS011;11139;51.284;7.226;2024-03-23T02:30:18;3.17;;;1.63;;
21949;SDS011;11139;51.284;7.226;2024-03-23T02:32:43;6.80;;;2.65;;
21949;SDS011;11139;51.284;7.226;2024-03-23T02:35:09;4.57;;;1.98;;
21949;SDS011;11139;51.284;7.226;2024-03-23T02:37:34;3.70;;;1.65;;
21949;SDS011;11139;51.284;7.226;2024-03-23T02:40:00;4.93;;;1.98;;
21949;SDS011;11139;51.284;7.226;2024-03-23T02:42:26;6.47;;;1.88;;
21949;SDS011;11139;51.284;7.226;2024-03-23T02:44:51;3.90;;;1.70;;
21949;SDS011;11139;51.284;7.226;2024-03-23T02:47:17;8.75;;;2.20;;
21949;SDS011;11139;51.284;7.226;2024-03-23T02:49:42;4.95;;;2.05;;
21949;SDS011;11139;51.284;7.226;2024-03-23T02:52:08;8.88;;;1.67;;
21949;SDS011;11139;51.284;7.226;2024-03-23T02:54:33;5.65;;;1.50;;
21949;SDS011;11139;51.284;7.226;2024-03-23T02:56:59;7.93;;;1.70;;
21949;SDS011;11139;51.284;7.226;2024-03-23T02:59:25;6.50;;;1.75;;
21949;SDS011;11139;51.284;7.226;2024-03-23T03:01:50;4.70;;;1.77;;
21949;SDS011;11139;51.284;7.226;2024-03-23T03:04:16;5.93;;;1.80;;
21949;SDS011;11139;51.284;7.226;2024-03-23T03:06:41;6.43;;;1.67;;
21949;SDS011;11139;51.284;7.226;2024-03-23T03:09:07;5.85;;;1.65;;
21949;SDS011;11139;51.284;7.226;2024-03-23T03:11:33;8.88;;;1.70;;
21949;SDS011;11139;51.284;7.226;2024-03-23T03:13:58;4.15;;;1.38;;
21949;SDS011;11139;51.284;7.226;2024-03-23T03:16:25;5.20;;;1.75;;
21949;SDS011;11139;51.284;7.226;2024-03-23T03:18:51;4.82;;;1.80;;
21949;SDS011;11139;51.284;7.226;2024-03-23T03:21:17;4.35;;;1.35;;
21949;SDS011;11139;51.284;7.226;2024-03-23T03:23:44;5.15;;;1.60;;
21949;SDS011;11139;51.284;7.226;2024-03-23T03:26:10;5.25;;;1.63;;
21949;SDS011;11139;51.284;7.226;2024-03-23T03:28:35;5.15;;;1.40;;
21949;SDS011;11139;51.284;7.226;2024-03-23T03:31:01;5.10;;;1.60;;
21949;SDS011;11139;51.284;7.226;2024-03-23T03:33:27;3.65;;;1.13;;
21949;SDS011;11139;51.284;7.226;2024-03-23T03:35:53;4.57;;;1.70;;
21949;SDS011;11139;51.284;7.226;2024-03-23T03:38:19;3.72;;;1.33;;
21949;SDS011;11139;51.284;7.226;2024-03-23T03:40:45;4.97;;;1.55;;
21949;SDS011;11139;51.284;7.226;2024-03-23T03:43:11;4.55;;;1.98;;
21949;SDS011;11139;51.284;7.226;2024-03-23T03:45:36;5.07;;;1.85;;
21949;SDS011;11139;51.284;7.226;2024-03-23T03:48:02;5.95;;;1.80;;
21949;SDS011;11139;51.284;7.226;2024-03-23T03:50:28;5.75;;;1.65;;
21949;SDS011;11139;51.284;7.226;2024-03-23T03:52:53;6.15;;;1.13;;
21949;SDS011;11139;51.284;7.226;2024-03-23T03:55:19;5.93;;;1.23;;
21949;SDS011;11139;51.284;7.226;2024-03-23T03:57:44;5.43;;;1.05;;
21949;SDS011;11139;51.284;7.226;2024-03-23T04:00:10;7.35;;;1.40;;
21949;SDS011;11139;51.284;7.226;2024-03-23T04:02:37;4.25;;;1.13;;
21949;SDS011;11139;51.284;7.226;2024-03-23T04:05:03;3.00;;;1.02;;
21949;SDS011;11139;51.284;7.226;2024-03-23T04:07:29;4.05;;;1.15;;
21949;SDS011;11139;51.284;7.226;2024-03-23T04:09:54;2.83;;;1.30;;
21949;SDS011;11139;51.284;7.226;2024-03-23T04:12:20;6.35;;;1.27;;
21949;SDS011;11139;51.284;7.226;2024-03-23T04:14:45;4.13;;;1.20;;
21949;SDS011;11139;51.284;7.226;2024-03-23T04:17:11;6.38;;;1.92;;
21949;SDS011;11139;51.284;7.226;2024-03-23T04:19:37;3.25;;;1.02;;
21949;SDS011;11139;51.284;7.226;2024-03-23T04:22:02;3.65;;;1.13;;
21949;SDS011;11139;51.284;7.226;2024-03-23T04:24:28;5.25;;;1.38;;
21949;SDS011;11139;51.284;7.226;2024-03-23T04:26:54;8.50;;;1.48;;
21949;SDS011;11139;51.284;7.226;2024-03-23T04:29:20;5.50;;;1.40;;
21949;SDS011;11139;51.284;7.226;2024-03-23T04:31:45;2.10;;;0.93;;
21949;SDS011;11139;51.284;7.226;2024-03-23T04:34:12;7.80;;;1.48;;
21949;SDS011;11139;51.284;7.226;2024-03-23T04:36:38;5.93;;;1.20;;
21949;SDS011;11139;51.284;7.226;2024-03-23T04:39:03;6.45;;;1.65;;
21949;SDS011;11139;51.284;7.226;2024-03-23T04:41:29;5.70;;;1.55;;
21949;SDS011;11139;51.284;7.226;2024-03-23T04:43:55;6.60;;;1.23;;
21949;SDS011;11139;51.284;7.226;2024-03-23T04:46:20;7.10;;;1.58;;
21949;SDS011;11139;51.284;7.226;2024-03-23T04:48:46;7.47;;;2.30;;
21949;SDS011;11139;51.284;7.226;2024-03-23T04:51:20;7.13;;;1.75;;
21949;SDS011;11139;51.284;7.226;2024-03-23T04:53:46;6.03;;;1.42;;
21949;SDS011;11139;51.284;7.226;2024-03-23T04:56:13;3.63;;;1.92;;
21949;SDS011;11139;51.284;7.226;2024-03-23T04:58:39;4.45;;;1.30;;
21949;SDS011;11139;51.284;7.226;2024-03-23T05:01:05;5.65;;;2.00;;
21949;SDS011;11139;51.284;7.226;2024-03-23T05:03:30;7.30;;;1.98;;
21949;SDS011;11139;51.284;7.226;2024-03-23T05:05:56;6.45;;;1.80;;
21949;SDS011;11139;51.284;7.226;2024-03-23T05:08:22;5.68;;;1.45;;
21949;SDS011;11139;51.284;7.226;2024-03-23T05:10:47;5.25;;;1.30;;
21949;SDS011;11139;51.284;7.226;2024-03-23T05:13:13;5.03;;;2.35;;
21949;SDS011;11139;51.284;7.226;2024-03-23T05:15:38;9.25;;;2.00;;
21949;SDS011;11139;51.284;7.226;2024-03-23T05:18:04;6.85;;;1.90;;
21949;SDS011;11139;51.284;7.226;2024-03-23T05:20:31;9.13;;;2.35;;
21949;SDS011;11139;51.284;7.226;2024-03-23T05:22:57;6.10;;;2.92;;
21949;SDS011;11139;51.284;7.226;2024-03-23T05:25:22;5.15;;;1.73;;
21949;SDS011;11139;51.284;7.226;2024-03-23T05:27:48;6.47;;;2.55;;
21949;SDS011;11139;51.284;7.226;2024-03-23T05:30:14;8.27;;;2.30;;
21949;SDS011;11139;51.284;7.226;2024-03-23T05:32:40;7.93;;;2.80;;
21949;SDS011;11139;51.284;7.226;2024-03-23T05:35:07;12.05;;;2.50;;
21949;SDS011;11139;51.284;7.226;2024-03-23T05:37:34;7.38;;;2.78;;
21949;SDS011;11139;51.284;7.226;2024-03-23T05:40:00;11.30;;;2.35;;
21949;SDS011;11139;51.284;7.226;2024-03-23T05:42:26;8.45;;;2.90;;
21949;SDS011;11139;51.284;7.226;2024-03-23T05:44:51;6.57;;;2.25;;
21949;SDS011;11139;51.284;7.226;2024-03-23T05:47:17;8.75;;;3.08;;
21949;SDS011;11139;51.284;7.226;2024-03-23T05:49:43;10.85;;;2.85;;
21949;SDS011;11139;51.284;7.226;2024-03-23T05:52:11;4.47;;;1.95;;
21949;SDS011;11139;51.284;7.226;2024-03-23T05:54:36;6.93;;;2.92;;
21949;SDS011;11139;51.284;7.226;2024-03-23T05:57:03;11.52;;;2.63;;
21949;SDS011;11139;51.284;7.226;2024-03-23T05:59:28;8.13;;;2.88;;
21949;SDS011;11139;51.284;7.226;2024-03-23T06:01:54;6.22;;;2.88;;
21949;SDS011;11139;51.284;7.226;2024-03-23T06:04:20;8.40;;;2.50;;
21949;SDS011;11139;51.284;7.226;2024-03-23T06:06:47;9.13;;;2.92;;
21949;SDS011;11139;51.284;7.226;2024-03-23T06:09:13;7.80;;;2.85;;
21949;SDS011;11139;51.284;7.226;2024-03-23T06:11:38;7.38;;;3.10;;
21949;SDS011;11139;51.284;7.226;2024-03-23T06:14:04;6.13;;;3.13;;
21949;SDS011;11139;51.284;7.226;2024-03-23T06:16:31;7.93;;;3.17;;
21949;SDS011;11139;51.284;7.226;2024-03-23T06:18:56;6.18;;;2.75;;
21949;SDS011;11139;51.284;7.226;2024-03-23T06:21:22;8.52;;;3.35;;
21949;SDS011;11139;51.284;7.226;2024-03-23T06:23:51;7.05;;;3.03;;
21949;SDS011;11139;51.284;7.226;2024-03-23T06:26:18;6.40;;;2.70;;
21949;SDS011;11139;51.284;7.226;2024-03-23T06:28:44;6.93;;;2.60;;
21949;SDS011;11139;51.284;7.226;2024-03-23T06:31:11;8.52;;;2.83;;
21949;SDS011;11139;51.284;7.226;2024-03-23T06:33:37;3.92;;;2.35;;
21949;SDS011;11139;51.284;7.226;2024-03-23T06:36:03;6.85;;;3.22;;
21949;SDS011;11139;51.284;7.226;2024-03-23T06:38:30;9.40;;;3.03;;
21949;SDS011;11139;51.284;7.226;2024-03-23T06:40:55;5.97;;;2.55;;
21949;SDS011;11139;51.284;7.226;2024-03-23T06:43:21;9.27;;;2.70;;
21949;SDS011;11139;51.284;7.226;2024-03-23T06:45:53;6.78;;;2.67;;
21949;SDS011;11139;51.284;7.226;2024-03-23T06:48:19;5.30;;;2.17;;
21949;SDS011;11139;51.284;7.226;2024-03-23T06:50:45;9.20;;;3.03;;
21949;SDS011;11139;51.284;7.226;2024-03-23T06:53:12;5.78;;;2.90;;
21949;SDS011;11139;51.284;7.226;2024-03-23T06:55:38;7.38;;;3.08;;
21949;SDS011;11139;51.284;7.226;2024-03-23T06:58:04;7.05;;;2.88;;
21949;SDS011;11139;51.284;7.226;2024-03-23T07:00:29;7.93;;;3.10;;
21949;SDS011;11139;51.284;7.226;2024-03-23T07:02:55;8.43;;;3.53;;
21949;SDS011;11139;51.284;7.226;2024-03-23T07:05:21;8.27;;;3.50;;
21949;SDS011;11139;51.284;7.226;2024-03-23T07:07:47;10.27;;;4.32;;
21949;SDS011;11139;51.284;7.226;2024-03-23T07:10:12;8.32;;;3.33;;
21949;SDS011;11139;51.284;7.226;2024-03-23T07:12:38;10.27;;;3.55;;
21949;SDS011;11139;51.284;7.226;2024-03-23T07:15:04;7.72;;;3.70;;
21949;SDS011;11139;51.284;7.226;2024-03-23T07:17:30;9.15;;;3.97;;
21949;SDS011;11139;51.284;7.226;2024-03-23T07:19:57;11.18;;;3.97;;
21949;SDS011;11139;51.284;7.226;2024-03-23T07:22:23;11.20;;;3.85;;
21949;SDS011;11139;51.284;7.226;2024-03-23T07:24:49;8.98;;;3.70;;
21949;SDS011;11139;51.284;7.226;2024-03-23T07:27:14;9.55;;;4.72;;
21949;SDS011;11139;51.284;7.226;2024-03-23T07:29:40;8.90;;;3.13;;
21949;SDS011;11139;51.284;7.226;2024-03-23T07:32:06;6.97;;;3.55;;
21949;SDS011;11139;51.284;7.226;2024-03-23T07:34:31;9.55;;;3.95;;
21949;SDS011;11139;51.284;7.226;2024-03-23T07:36:57;12.48;;;4.47;;
21949;SDS011;11139;51.284;7.226;2024-03-23T07:39:22;10.38;;;3.38;;
21949;SDS011;11139;51.284;7.226;2024-03-23T07:41:48;10.75;;;3.95;;
21949;SDS011;11139;51.284;7.226;2024-03-23T07:44:13;7.43;;;3.85;;
21949;SDS011;11139;51.284;7.226;2024-03-23T07:46:39;9.20;;;3.80;;
21949;SDS011;11139;51.284;7.226;2024-03-23T07:49:05;11.10;;;4.15;;
21949;SDS011;11139;51.284;7.226;2024-03-23T07:51:30;13.52;;;4.13;;
21949;SDS011;11139;51.284;7.226;2024-03-23T07:53:56;12.02;;;4.13;;
21949;SDS011;11139;51.284;7.226;2024-03-23T07:56:22;11.15;;;4.70;;
21949;SDS011;11139;51.284;7.226;2024-03-23T07:58:48;11.50;;;4.22;;
21949;SDS011;11139;51.284;7.226;2024-03-23T08:01:15;13.38;;;4.40;;
21949;SDS011;11139;51.284;7.226;2024-03-23T08:03:43;8.70;;;4.65;;
21949;SDS011;11139;51.284;7.226;2024-03-23T08:06:09;13.90;;;4.15;;
21949;SDS011;11139;51.284;7.226;2024-03-23T08:08:43;8.38;;;4.50;;
21949;SDS011;11139;51.284;7.226;2024-03-23T08:11:10;8.98;;;4.70;;
21949;SDS011;11139;51.284;7.226;2024-03-23T08:13:37;9.20;;;3.90;;
21949;SDS011;11139;51.284;7.226;2024-03-23T08:16:06;10.40;;;5.18;;
21949;SDS011;11139;51.284;7.226;2024-03-23T08:18:33;7.60;;;4.22;;
21949;SDS011;11139;51.284;7.226;2024-03-23T08:21:00;8.60;;;4.80;;
21949;SDS011;11139;51.284;7.226;2024-03-23T08:23:33;11.13;;;5.38;;
21949;SDS011;11139;51.284;7.226;2024-03-23T08:26:01;10.38;;;4.50;;
21949;SDS011;11139;51.284;7.226;2024-03-23T08:28:37;9.30;;;4.50;;
21949;SDS011;11139;51.284;7.226;2024-03-23T08:31:07;8.77;;;4.55;;
21949;SDS011;11139;51.284;7.226;2024-03-23T08:33:34;9.50;;;4.25;;
21949;SDS011;11139;51.284;7.226;2024-03-23T08:36:03;15.05;;;5.28;;
21949;SDS011;11139;51.284;7.226;2024-03-23T08:38:32;9.20;;;3.42;;
21949;SDS011;11139;51.284;7.226;2024-03-23T08:40:59;9.05;;;4.53;;
21949;SDS011;11139;51.284;7.226;2024-03-23T08:43:28;9.40;;;4.85;;
21949;SDS011;11139;51.284;7.226;2024-03-23T08:46:03;11.48;;;3.90;;
21949;SDS011;11139;51.284;7.226;2024-03-23T08:48:33;8.60;;;3.10;;
21949;SDS011;11139;51.284;7.226;2024-03-23T08:51:07;7.00;;;2.95;;
21949;SDS011;11139;51.284;7.226;2024-03-23T08:53:34;6.88;;;3.28;;
21949;SDS011;11139;51.284;7.226;2024-03-23T08:56:00;13.90;;;3.30;;
21949;SDS011;11139;51.284;7.226;2024-03-23T08:58:28;12.77;;;3.70;;
21949;SDS011;11139;51.284;7.226;2024-03-23T09:00:55;6.40;;;2.67;;
21949;SDS011;11139;51.284;7.226;2024-03-23T09:03:28;8.73;;;3.33;;
21949;SDS011;11139;51.284;7.226;2024-03-23T09:05:53;10.98;;;4.38;;
21949;SDS011;11139;51.284;7.226;2024-03-23T09:08:20;9.45;;;3.17;;
21949;SDS011;11139;51.284;7.226;2024-03-23T09:10:46;15.77;;;4.95;;
21949;SDS011;11139;51.284;7.226;2024-03-23T09:13:12;10.45;;;3.10;;
21949;SDS011;11139;51.284;7.226;2024-03-23T09:15:45;9.70;;;2.92;;
21949;SDS011;11139;51.284;7.226;2024-03-23T09:18:12;7.15;;;2.25;;
21949;SDS011;11139;51.284;7.226;2024-03-23T09:20:37;5.63;;;2.17;;
21949;SDS011;11139;51.284;7.226;2024-03-23T09:23:03;6.05;;;1.92;;
21949;SDS011;11139;51.284;7.226;2024-03-23T09:25:29;5.15;;;1.77;;
21949;SDS011;11139;51.284;7.226;2024-03-23T09:27:55;2.78;;;1.38;;
21949;SDS011;11139;51.284;7.226;2024-03-23T09:30:20;5.85;;;1.88;;
21949;SDS011;11139;51.284;7.226;2024-03-23T09:32:46;6.25;;;1.80;;
21949;SDS011;11139;51.284;7.226;2024-03-23T09:35:11;4.63;;;1.30;;
21949;SDS011;11139;51.284;7.226;2024-03-23T09:37:40;4.65;;;1.27;;
21949;SDS011;11139;51.284;7.226;2024-03-23T09:40:15;4.25;;;1.33;;
21949;SDS011;11139;51.284;7.226;2024-03-23T09:42:40;3.47;;;1.20;;
21949;SDS011;11139;51.284;7.226;2024-03-23T09:45:16;3.22;;;1.05;;
21949;SDS011;11139;51.284;7.226;2024-03-23T09:47:45;5.38;;;1.38;;
21949;SDS011;11139;51.284;7.226;2024-03-23T09:50:12;4.53;;;1.50;;
21949;SDS011;11139;51.284;7.226;2024-03-23T09:52:38;3.20;;;1.20;;
21949;SDS011;11139;51.284;7.226;2024-03-23T09:55:04;3.70;;;1.60;;
21949;SDS011;11139;51.284;7.226;2024-03-23T09:57:29;2.35;;;1.23;;
21949;SDS011;11139;51.284;7.226;2024-03-23T09:59:55;3.45;;;1.33;;
21949;SDS011;11139;51.284;7.226;2024-03-23T10:02:22;4.50;;;1.70;;
21949;SDS011;11139;51.284;7.226;2024-03-23T10:04:49;3.78;;;1.25;;
21949;SDS011;11139;51.284;7.226;2024-03-23T10:07:15;4.53;;;1.23;;
21949;SDS011;11139;51.284;7.226;2024-03-23T10:09:44;5.15;;;1.42;;
21949;SDS011;11139;51.284;7.226;2024-03-23T10:12:10;6.93;;;1.92;;
21949;SDS011;11139;51.284;7.226;2024-03-23T10:14:38;2.78;;;1.50;;
21949;SDS011;11139;51.284;7.226;2024-03-23T10:20:00;6.00;;;1.88;;
21949;SDS011;11139;51.284;7.226;2024-03-23T10:22:26;9.25;;;2.53;;
21949;SDS011;11139;51.284;7.226;2024-03-23T10:24:52;4.95;;;2.20;;
21949;SDS011;11139;51.284;7.226;2024-03-23T10:27:19;6.32;;;2.17;;
21949;SDS011;11139;51.284;7.226;2024-03-23T10:29:45;4.80;;;2.05;;
21949;SDS011;11139;51.284;7.226;2024-03-23T10:32:12;10.65;;;2.50;;
21949;SDS011;11139;51.284;7.226;2024-03-23T10:34:39;8.38;;;2.88;;
21949;SDS011;11139;51.284;7.226;2024-03-23T10:37:05;4.65;;;2.40;;
21949;SDS011;11139;51.284;7.226;2024-03-23T10:39:36;8.23;;;2.55;;
21949;SDS011;11139;51.284;7.226;2024-03-23T10:42:03;6.68;;;2.42;;
21949;SDS011;11139;51.284;7.226;2024-03-23T10:44:33;8.07;;;3.40;;
21949;SDS011;11139;51.284;7.226;2024-03-23T10:47:03;9.20;;;2.38;;
21949;SDS011;11139;51.284;7.226;2024-03-23T10:49:31;7.00;;;2.53;;
21949;SDS011;11139;51.284;7.226;2024-03-23T10:51:58;5.88;;;2.33;;
21949;SDS011;11139;51.284;7.226;2024-03-23T10:54:31;6.47;;;3.22;;
21949;SDS011;11139;51.284;7.226;2024-03-23T10:59:29;8.90;;;2.80;;
21949;SDS011;11139;51.284;7.226;2024-03-23T11:01:57;5.82;;;2.40;;
21949;SDS011;11139;51.284;7.226;2024-03-23T11:04:33;5.18;;;1.70;;
21949;SDS011;11139;51.284;7.226;2024-03-23T11:07:01;5.90;;;2.13;;
21949;SDS011;11139;51.284;7.226;2024-03-23T11:09:42;5.20;;;1.45;;
21949;SDS011;11139;51.284;7.226;2024-03-23T11:14:52;6.32;;;1.83;;
21949;SDS011;11139;51.284;7.226;2024-03-23T11:17:20;2.80;;;1.15;;
21949;SDS011;11139;51.284;7.226;2024-03-23T11:20:20;2.42;;;1.05;;
21949;SDS011;11139;51.284;7.226;2024-03-23T11:27:44;4.18;;;1.10;;
21949;SDS011;11139;51.284;7.226;2024-03-23T11:30:17;3.97;;;1.10;;
21949;SDS011;11139;51.284;7.226;2024-03-23T11:32:43;2.13;;;1.27;;
21949;SDS011;11139;51.284;7.226;2024-03-23T11:35:10;3.28;;;1.30;;
21949;SDS011;11139;51.284;7.226;2024-03-23T11:38:00;3.33;;;1.17;;
21949;SDS011;11139;51.284;7.226;2024-03-23T11:43:08;2.72;;;1.05;;
21949;SDS011;11139;51.284;7.226;2024-03-23T11:45:40;2.78;;;0.95;;
21949;SDS011;11139;51.284;7.226;2024-03-23T11:48:10;2.75;;;1.40;;
21949;SDS011;11139;51.284;7.226;2024-03-23T11:50:47;4.85;;;1.25;;
21949;SDS011;11139;51.284;7.226;2024-03-23T11:56:00;4.20;;;1.25;;
21949;SDS011;11139;51.284;7.226;2024-03-23T11:58:26;4.25;;;1.33;;
21949;SDS011;11139;51.284;7.226;2024-03-23T12:01:02;3.53;;;1.38;;
21949;SDS011;11139;51.284;7.226;2024-03-23T12:03:29;3.05;;;1.10;;
21949;SDS011;11139;51.284;7.226;2024-03-23T12:05:59;3.53;;;1.35;;
21949;SDS011;11139;51.284;7.226;2024-03-23T12:08:33;3.25;;;1.20;;
21949;SDS011;11139;51.284;7.226;2024-03-23T12:13:32;4.05;;;1.20;;
21949;SDS011;11139;51.284;7.226;2024-03-23T12:16:11;3.50;;;1.90;;
21949;SDS011;11139;51.284;7.226;2024-03-23T12:18:37;2.15;;;0.90;;
21949;SDS011;11139;51.284;7.226;2024-03-23T12:21:05;3.42;;;1.30;;
21949;SDS011;11139;51.284;7.226;2024-03-23T12:23:31;2.10;;;1.13;;
21949;SDS011;11139;51.284;7.226;2024-03-23T12:25:57;3.88;;;1.13;;
21949;SDS011;11139;51.284;7.226;2024-03-23T12:28:23;2.60;;;0.93;;
21949;SDS011;11139;51.284;7.226;2024-03-23T12:30:48;1.23;;;0.80;;
21949;SDS011;11139;51.284;7.226;2024-03-23T12:33:14;4.22;;;1.23;;
21949;SDS011;11139;51.284;7.226;2024-03-23T12:35:40;3.47;;;1.05;;
21949;SDS011;11139;51.284;7.226;2024-03-23T12:38:05;2.45;;;0.73;;
21949;SDS011;11139;51.284;7.226;2024-03-23T12:40:31;0.98;;;0.60;;
21949;SDS011;11139;51.284;7.226;2024-03-23T12:42:56;0.82;;;0.80;;
21949;SDS011;11139;51.284;7.226;2024-03-23T12:45:22;2.28;;;0.88;;
21949;SDS011;11139;51.284;7.226;2024-03-23T12:47:48;1.83;;;0.80;;
21949;SDS011;11139;51.284;7.226;2024-03-23T12:50:13;1.83;;;1.00;;
21949;SDS011;11139;51.284;7.226;2024-03-23T12:52:39;2.42;;;0.50;;
21949;SDS011;11139;51.284;7.226;2024-03-23T12:55:05;2.25;;;0.70;;
21949;SDS011;11139;51.284;7.226;2024-03-23T12:57:31;4.80;;;0.80;;
21949;SDS011;11139;51.284;7.226;2024-03-23T12:59:58;2.75;;;0.60;;
21949;SDS011;11139;51.284;7.226;2024-03-23T13:02:24;2.10;;;0.50;;
21949;SDS011;11139;51.284;7.226;2024-03-23T13:04:49;0.85;;;0.60;;
21949;SDS011;11139;51.284;7.226;2024-03-23T13:07:17;2.25;;;0.57;;
21949;SDS011;11139;51.284;7.226;2024-03-23T13:09:43;2.00;;;0.77;;
21949;SDS011;11139;51.284;7.226;2024-03-23T13:12:09;1.95;;;0.80;;
21949;SDS011;11139;51.284;7.226;2024-03-23T13:14:34;1.15;;;0.80;;
21949;SDS011;11139;51.284;7.226;2024-03-23T13:17:00;1.45;;;0.50;;
21949;SDS011;11139;51.284;7.226;2024-03-23T13:19:27;3.67;;;0.90;;
21949;SDS011;11139;51.284;7.226;2024-03-23T13:21:55;1.52;;;0.85;;
21949;SDS011;11139;51.284;7.226;2024-03-23T13:24:25;1.25;;;0.60;;
21949;SDS011;11139;51.284;7.226;2024-03-23T13:26:52;2.58;;;0.80;;
21949;SDS011;11139;51.284;7.226;2024-03-23T13:29:21;1.90;;;0.90;;
21949;SDS011;11139;51.284;7.226;2024-03-23T13:31:47;6.25;;;1.40;;
21949;SDS011;11139;51.284;7.226;2024-03-23T13:34:14;2.20;;;1.15;;
21949;SDS011;11139;51.284;7.226;2024-03-23T13:36:41;2.33;;;1.05;;
21949;SDS011;11139;51.284;7.226;2024-03-23T13:39:07;2.70;;;1.10;;
21949;SDS011;11139;51.284;7.226;2024-03-23T13:41:39;4.35;;;1.17;;
21949;SDS011;11139;51.284;7.226;2024-03-23T13:44:05;2.40;;;0.98;;
21949;SDS011;11139;51.284;7.226;2024-03-23T13:46:32;4.55;;;1.30;;
21949;SDS011;11139;51.284;7.226;2024-03-23T13:48:58;3.97;;;1.42;;
21949;SDS011;11139;51.284;7.226;2024-03-23T13:51:24;3.65;;;1.30;;
21949;SDS011;11139;51.284;7.226;2024-03-23T13:53:52;1.52;;;0.77;;
21949;SDS011;11139;51.284;7.226;2024-03-23T13:56:19;3.85;;;1.23;;
21949;SDS011;11139;51.284;7.226;2024-03-23T13:58:45;2.85;;;1.08;;
21949;SDS011;11139;51.284;7.226;2024-03-23T14:01:12;1.98;;;0.95;;
21949;SDS011;11139;51.284;7.226;2024-03-23T14:03:38;1.60;;;0.88;;
21949;SDS011;11139;51.284;7.226;2024-03-23T14:06:04;2.25;;;0.88;;
21949;SDS011;11139;51.284;7.226;2024-03-23T14:11:00;1.65;;;0.52;;
21949;SDS011;11139;51.284;7.226;2024-03-23T14:13:27;2.95;;;0.90;;
21949;SDS011;11139;51.284;7.226;2024-03-23T14:15:53;1.85;;;0.93;;
21949;SDS011;11139;51.284;7.226;2024-03-23T14:18:19;5.82;;;1.00;;
21949;SDS011;11139;51.284;7.226;2024-03-23T14:20:44;2.47;;;0.80;;
21949;SDS011;11139;51.284;7.226;2024-03-23T14:23:10;2.83;;;0.70;;
21949;SDS011;11139;51.284;7.226;2024-03-23T14:25:35;2.35;;;0.70;;
21949;SDS011;11139;51.284;7.226;2024-03-23T14:28:01;2.70;;;0.90;;
21949;SDS011;11139;51.284;7.226;2024-03-23T14:30:27;3.03;;;0.88;;
21949;SDS011;11139;51.284;7.226;2024-03-23T14:32:52;1.17;;;0.50;;
21949;SDS011;11139;51.284;7.226;2024-03-23T14:35:18;1.67;;;0.50;;
21949;SDS011;11139;51.284;7.226;2024-03-23T14:37:43;3.00;;;0.98;;
21949;SDS011;11139;51.284;7.226;2024-03-23T14:40:11;1.10;;;0.63;;
21949;SDS011;11139;51.284;7.226;2024-03-23T14:42:37;1.58;;;0.50;;
21949;SDS011;11139;51.284;7.226;2024-03-23T14:45:04;2.25;;;0.90;;
21949;SDS011;11139;51.284;7.226;2024-03-23T14:47:30;2.83;;;0.65;;
21949;SDS011;11139;51.284;7.226;2024-03-23T14:49:56;2.88;;;1.40;;
21949;SDS011;11139;51.284;7.226;2024-03-23T14:52:23;4.70;;;1.25;;
21949;SDS011;11139;51.284;7.226;2024-03-23T14:54:49;2.85;;;1.13;;
21949;SDS011;11139;51.284;7.226;2024-03-23T14:57:15;5.72;;;1.25;;
21949;SDS011;11139;51.284;7.226;2024-03-23T14:59:41;2.97;;;0.93;;
21949;SDS011;11139;51.284;7.226;2024-03-23T15:02:07;6.72;;;1.00;;
21949;SDS011;11139;51.284;7.226;2024-03-23T15:04:33;4.60;;;1.40;;
21949;SDS011;11139;51.284;7.226;2024-03-23T15:06:59;1.70;;;0.98;;
21949;SDS011;11139;51.284;7.226;2024-03-23T15:09:24;5.25;;;1.48;;
21949;SDS011;11139;51.284;7.226;2024-03-23T15:11:50;3.30;;;1.17;;
21949;SDS011;11139;51.284;7.226;2024-03-23T15:14:16;1.33;;;0.80;;
21949;SDS011;11139;51.284;7.226;2024-03-23T15:16:41;7.00;;;1.33;;
21949;SDS011;11139;51.284;7.226;2024-03-23T15:19:07;3.85;;;1.20;;
21949;SDS011;11139;51.284;7.226;2024-03-23T15:21:34;2.70;;;1.50;;
21949;SDS011;11139;51.284;7.226;2024-03-23T15:24:00;3.55;;;0.95;;
21949;SDS011;11139;51.284;7.226;2024-03-23T15:26:25;6.78;;;1.70;;
21949;SDS011;11139;51.284;7.226;2024-03-23T15:28:52;4.88;;;1.70;;
21949;SDS011;11139;51.284;7.226;2024-03-23T15:31:23;3.97;;;1.02;;
21949;SDS011;11139;51.284;7.226;2024-03-23T15:33:50;4.80;;;1.58;;
21949;SDS011;11139;51.284;7.226;2024-03-23T15:36:16;5.25;;;1.20;;
21949;SDS011;11139;51.284;7.226;2024-03-23T15:38:42;4.72;;;1.33;;
21949;SDS011;11139;51.284;7.226;2024-03-23T15:41:08;5.75;;;1.10;;
21949;SDS011;11139;51.284;7.226;2024-03-23T15:43:34;3.20;;;1.20;;
21949;SDS011;11139;51.284;7.226;2024-03-23T15:46:00;3.63;;;1.00;;
21949;SDS011;11139;51.284;7.226;2024-03-23T15:48:27;3.28;;;1.20;;
21949;SDS011;11139;51.284;7.226;2024-03-23T15:50:54;2.83;;;1.13;;
21949;SDS011;11139;51.284;7.226;2024-03-23T15:53:24;2.50;;;0.90;;
21949;SDS011;11139;51.284;7.226;2024-03-23T15:55:53;2.72;;;1.02;;
21949;SDS011;11139;51.284;7.226;2024-03-23T15:58:20;5.90;;;1.00;;